WXM80 ListenWXM80 Stop

You find our weather info also at:

UK Metoffice

WeatherCloud

Weather Underground

Northeastern Weather Network

AWEKAS

Citizen Weather Observer Program (CWOP)

HAMweather, WeatherForYou, PWS Weather


Weather Underground History page Text

Daily Summary for April 9, 2017 Units:  English    Metric   Both
« Previous Day
Next Day »
Daily Weekly Monthly Yearly Custom
  High: Low: Average:
Temperature: 68.1 °F 35.6 °F 51.2 °F
Dew Point: 37.0 °F 25.4 °F 31.2 °F
Humidity: 75 % 22 % 50 %
Wind Speed: 8.7 mph 0.0 mph 3.4 mph
Wind Gust: 18.4 mph - -
Wind:- - WSW
Pressure: 30.14 in 29.99 in -
Precipitation: 0.00 in    
Historical Graphs
 
 
Tabular Data for April 9, 2017
Time Temperature Dew Point Pressure Wind Wind Speed Wind Gust Humidity Rainfall Rate (Hourly)
00:02 44.8 °F 31.8 °F 29.99 in NW 0.9 mph 3.5 mph 60 % 0.00 in
00:07 44.7 °F 31.7 °F 29.99 in NW 0.5 mph 1.2 mph 60 % 0.00 in
00:12 44.5 °F 31.5 °F 29.99 in NW 0.8 mph 2.3 mph 60 % 0.00 in
00:17 44.4 °F 31.8 °F 29.99 in NW 1.0 mph 2.3 mph 61 % 0.00 in
00:22 44.2 °F 31.2 °F 29.99 in Calm     60 % 0.00 in
00:27 44.1 °F 31.5 °F 29.99 in Calm     61 % 0.00 in
00:32 43.8 °F 31.6 °F 30.00 in Calm     62 % 0.00 in
00:37 43.5 °F 31.7 °F 30.00 in NW 0.6 mph 2.3 mph 63 % 0.00 in
00:43 43.4 °F 32.0 °F 30.00 in NW 1.3 mph 2.3 mph 64 % 0.00 in
00:48 43.1 °F 31.4 °F 30.00 in NW 1.4 mph 2.3 mph 63 % 0.00 in
00:53 42.9 °F 31.2 °F 30.00 in NW 0.5 mph 2.3 mph 63 % 0.00 in
00:58 42.4 °F 31.5 °F 30.00 in NW 1.1 mph 2.3 mph 65 % 0.00 in
01:03 42.0 °F 31.5 °F 30.00 in NW 1.9 mph 3.5 mph 66 % 0.00 in
01:08 41.8 °F 31.6 °F 30.00 in NW 1.3 mph 2.3 mph 67 % 0.00 in
01:13 41.7 °F 31.5 °F 30.00 in NW 1.9 mph 3.5 mph 67 % 0.00 in
01:18 41.6 °F 31.4 °F 30.00 in NW 2.0 mph 3.5 mph 67 % 0.00 in
01:23 41.4 °F 31.3 °F 30.00 in NW 0.9 mph 2.3 mph 67 % 0.00 in
01:28 41.2 °F 31.4 °F 30.00 in NW 0.6 mph 2.0 mph 68 % 0.00 in
01:33 41.0 °F 30.9 °F 30.01 in Calm     67 % 0.00 in
01:38 40.9 °F 30.8 °F 30.00 in NW 0.2 mph 1.2 mph 67 % 0.00 in
01:43 40.7 °F 30.6 °F 30.01 in Calm   1.2 mph 67 % 0.00 in
01:48 40.5 °F 30.8 °F 30.01 in NW 0.3 mph 1.2 mph 68 % 0.00 in
01:53 40.4 °F 30.7 °F 30.01 in NW 0.5 mph 1.2 mph 68 % 0.00 in
01:58 40.2 °F 30.5 °F 30.01 in NW 0.1 mph 1.2 mph 68 % 0.00 in
02:03 40.1 °F 30.4 °F 30.01 in NW 0.1 mph 1.0 mph 68 % 0.00 in
02:08 39.9 °F 30.2 °F 30.01 in NW 0.3 mph 1.2 mph 68 % 0.00 in
02:13 39.7 °F 30.4 °F 30.01 in Calm     69 % 0.00 in
02:18 39.6 °F 30.3 °F 30.01 in Calm     69 % 0.00 in
02:23 39.3 °F 30.0 °F 30.01 in Calm     69 % 0.00 in
02:28 39.1 °F 29.8 °F 30.01 in Calm   1.2 mph 69 % 0.00 in
02:33 38.8 °F 29.8 °F 30.01 in Calm     70 % 0.00 in
02:38 38.5 °F 29.6 °F 30.01 in Calm     70 % 0.00 in
02:43 38.2 °F 29.3 °F 30.01 in NW 0.8 mph 2.3 mph 70 % 0.00 in
02:48 37.9 °F 29.3 °F 30.01 in Calm   1.2 mph 71 % 0.00 in
02:53 37.7 °F 29.1 °F 30.01 in NW 1.0 mph 2.3 mph 71 % 0.00 in
02:58 37.5 °F 28.9 °F 30.02 in NW 1.4 mph 3.5 mph 71 % 0.00 in
03:03 37.3 °F 29.1 °F 30.02 in NW 1.1 mph 2.3 mph 72 % 0.00 in
03:08 37.1 °F 28.9 °F 30.03 in NW 1.3 mph 3.0 mph 72 % 0.00 in
03:13 37.0 °F 29.1 °F 30.02 in NW 1.2 mph 3.5 mph 73 % 0.00 in
03:18 36.9 °F 29.1 °F 30.02 in NW 0.7 mph 2.3 mph 73 % 0.00 in
03:23 36.7 °F 28.9 °F 30.02 in NW 1.8 mph 2.3 mph 73 % 0.00 in
03:28 36.5 °F 29.0 °F 30.02 in NW 1.9 mph 3.5 mph 74 % 0.00 in
03:38 36.3 °F 28.8 °F 30.03 in NW 1.0 mph 2.3 mph 74 % 0.00 in
03:43 36.1 °F 28.6 °F 30.03 in NW 0.6 mph 2.3 mph 74 % 0.00 in
03:48 36.0 °F 28.8 °F 30.03 in NW 0.1 mph 1.2 mph 75 % 0.00 in
03:49 36.0 °F 28.8 °F 30.03 in Calm   1.2 mph 75 % 0.00 in
03:54 35.9 °F 28.4 °F 30.03 in NW 0.1 mph 1.2 mph 74 % 0.00 in
03:59 35.9 °F 28.4 °F 30.03 in NW 0.4 mph 1.2 mph 74 % 0.00 in
04:09 35.8 °F 28.3 °F 30.04 in NW 0.1 mph 1.2 mph 74 % 0.00 in
04:15 35.7 °F 28.2 °F 30.04 in NW 0.7 mph 2.3 mph 74 % 0.00 in
04:20 35.7 °F 28.2 °F 30.04 in NW 0.2 mph 1.2 mph 74 % 0.00 in
04:25 35.6 °F 27.8 °F 30.04 in NW 0.2 mph 1.2 mph 73 % 0.00 in
04:30 35.7 °F 27.6 °F 30.04 in Calm   1.2 mph 72 % 0.00 in
04:35 35.7 °F 27.6 °F 30.04 in NW 0.5 mph 2.3 mph 72 % 0.00 in
04:40 35.8 °F 27.7 °F 30.05 in NW 1.1 mph 2.0 mph 72 % 0.00 in
04:45 35.8 °F 27.7 °F 30.04 in NW 1.0 mph 2.3 mph 72 % 0.00 in
04:50 35.8 °F 27.7 °F 30.04 in NW 0.1 mph 1.2 mph 72 % 0.00 in
04:55 35.8 °F 27.7 °F 30.04 in NW 1.3 mph 2.3 mph 72 % 0.00 in
05:00 35.8 °F 27.7 °F 30.04 in NW 0.5 mph 1.2 mph 72 % 0.00 in
05:05 35.8 °F 27.3 °F 30.05 in NW 2.4 mph 3.5 mph 71 % 0.00 in
05:10 35.9 °F 27.1 °F 30.05 in WSW 1.8 mph 3.5 mph 70 % 0.00 in
05:25 36.4 °F 27.2 °F 30.05 in WSW 0.3 mph 1.2 mph 69 % 0.00 in
05:30 36.6 °F 27.0 °F 30.05 in WSW 1.2 mph 2.3 mph 68 % 0.00 in
05:35 36.7 °F 27.1 °F 30.05 in WSW 0.3 mph 1.2 mph 68 % 0.00 in
05:40 36.8 °F 27.2 °F 30.06 in WSW 1.2 mph 2.3 mph 68 % 0.00 in
05:45 36.9 °F 27.0 °F 30.06 in WSW 1.2 mph 3.0 mph 67 % 0.00 in
05:50 36.9 °F 27.3 °F 30.06 in WSW 1.1 mph 3.5 mph 68 % 0.00 in
05:55 36.9 °F 27.3 °F 30.07 in WSW 1.3 mph 2.3 mph 68 % 0.00 in
06:00 36.8 °F 27.2 °F 30.07 in WSW 1.8 mph 3.5 mph 68 % 0.00 in
06:05 36.8 °F 27.2 °F 30.07 in WSW 0.4 mph 2.3 mph 68 % 0.00 in
06:11 36.7 °F 27.1 °F 30.07 in WSW 0.4 mph 2.3 mph 68 % 0.00 in
06:16 36.7 °F 27.1 °F 30.07 in WSW 0.3 mph 1.2 mph 68 % 0.00 in
06:21 36.7 °F 27.1 °F 30.07 in WSW 1.9 mph 3.5 mph 68 % 0.00 in
06:31 36.7 °F 27.1 °F 30.08 in WSW 1.7 mph 2.3 mph 68 % 0.00 in
06:36 36.7 °F 27.1 °F 30.08 in WSW 1.2 mph 3.5 mph 68 % 0.00 in
06:41 36.8 °F 26.9 °F 30.09 in WSW 1.7 mph 3.5 mph 67 % 0.00 in
06:46 37.0 °F 27.1 °F 30.09 in WSW 2.0 mph 2.3 mph 67 % 0.00 in
06:51 37.2 °F 27.2 °F 30.09 in WSW 2.0 mph 3.5 mph 67 % 0.00 in
06:56 37.5 °F 27.2 °F 30.10 in WSW 1.7 mph 3.5 mph 66 % 0.00 in
07:01 37.9 °F 27.5 °F 30.10 in WSW 1.0 mph 3.5 mph 66 % 0.00 in
07:06 38.2 °F 27.8 °F 30.10 in WSW 0.8 mph 2.3 mph 66 % 0.00 in
07:11 38.6 °F 28.2 °F 30.10 in WSW 3.2 mph 5.0 mph 66 % 0.00 in
07:16 39.0 °F 28.2 °F 30.10 in WSW 4.1 mph 5.8 mph 65 % 0.00 in
07:21 39.3 °F 28.5 °F 30.10 in WSW 2.6 mph 3.5 mph 65 % 0.00 in
07:31 40.1 °F 28.9 °F 30.10 in SW 2.1 mph 3.5 mph 64 % 0.00 in
07:36 40.4 °F 28.8 °F 30.10 in SW 1.6 mph 3.5 mph 63 % 0.00 in
07:41 40.8 °F 29.2 °F 30.10 in SW 3.0 mph 6.9 mph 63 % 0.00 in
07:46 41.3 °F 29.3 °F 30.11 in SW 1.5 mph 3.5 mph 62 % 0.00 in
07:51 42.0 °F 29.1 °F 30.11 in West 3.0 mph 6.9 mph 60 % 0.00 in
07:56 42.6 °F 29.3 °F 30.11 in West 3.2 mph 4.6 mph 59 % 0.00 in
08:02 43.7 °F 29.0 °F 30.11 in West 3.4 mph 4.6 mph 56 % 0.00 in
08:07 44.6 °F 29.4 °F 30.10 in SW 4.1 mph 7.0 mph 55 % 0.00 in
08:17 46.1 °F 29.9 °F 30.10 in WSW 3.6 mph 6.9 mph 53 % 0.00 in
08:22 46.8 °F 30.1 °F 30.11 in WNW 3.8 mph 6.9 mph 52 % 0.00 in
08:27 47.3 °F 30.1 °F 30.11 in SW 4.0 mph 5.0 mph 51 % 0.00 in
08:32 47.9 °F 30.1 °F 30.11 in SW 6.1 mph 6.9 mph 50 % 0.00 in
08:37 48.3 °F 30.0 °F 30.11 in West 4.2 mph 6.9 mph 49 % 0.00 in
08:42 48.7 °F 30.4 °F 30.11 in SW 5.6 mph 11.0 mph 49 % 0.00 in
08:47 49.0 °F 30.1 °F 30.11 in West 4.0 mph 5.8 mph 48 % 0.00 in
08:52 49.4 °F 31.0 °F 30.11 in WSW 5.0 mph 10.0 mph 49 % 0.00 in
08:57 49.9 °F 30.5 °F 30.11 in WSW 4.0 mph 5.0 mph 47 % 0.00 in
09:02 50.3 °F 30.8 °F 30.12 in West 3.9 mph 9.2 mph 47 % 0.00 in
09:07 50.9 °F 30.8 °F 30.12 in West 4.2 mph 8.1 mph 46 % 0.00 in
09:12 51.2 °F 30.0 °F 30.12 in WSW 4.4 mph 7.0 mph 44 % 0.00 in
09:17 51.4 °F 30.7 °F 30.12 in West 3.9 mph 9.2 mph 45 % 0.00 in
09:22 51.9 °F 31.2 °F 30.13 in West 4.4 mph 8.1 mph 45 % 0.00 in
09:27 52.4 °F 30.0 °F 30.13 in NNW 4.4 mph 9.2 mph 42 % 0.00 in
09:32 52.7 °F 29.6 °F 30.13 in West 5.5 mph 11.5 mph 41 % 0.00 in
09:38 53.1 °F 30.6 °F 30.13 in WNW 2.1 mph 3.5 mph 42 % 0.00 in
09:43 53.5 °F 31.0 °F 30.13 in WNW 3.0 mph 5.8 mph 42 % 0.00 in
09:48 53.9 °F 31.3 °F 30.13 in WNW 6.0 mph 9.2 mph 42 % 0.00 in
09:53 54.0 °F 30.8 °F 30.13 in West 4.3 mph 8.1 mph 41 % 0.00 in
09:58 54.2 °F 30.4 °F 30.12 in WSW 5.3 mph 8.1 mph 40 % 0.00 in
10:03 54.6 °F 31.3 °F 30.13 in West 4.4 mph 5.8 mph 41 % 0.00 in
10:08 55.0 °F 32.3 °F 30.13 in SW 6.3 mph 10.0 mph 42 % 0.00 in
10:13 55.2 °F 32.5 °F 30.14 in West 3.6 mph 5.8 mph 42 % 0.00 in
10:18 55.6 °F 32.8 °F 30.13 in SW 5.6 mph 7.0 mph 42 % 0.00 in
10:23 55.6 °F 32.2 °F 30.13 in SW 2.0 mph 8.0 mph 41 % 0.00 in
10:28 55.8 °F 31.2 °F 30.13 in WSW 4.0 mph 9.2 mph 39 % 0.00 in
10:38 56.0 °F 31.4 °F 30.13 in WSW 4.2 mph 5.0 mph 39 % 0.00 in
10:43 56.3 °F 31.6 °F 30.13 in NW 4.3 mph 8.1 mph 39 % 0.00 in
10:48 56.7 °F 31.4 °F 30.13 in WSW 6.2 mph 8.1 mph 38 % 0.00 in
10:53 57.1 °F 32.4 °F 30.13 in WSW 3.3 mph 6.9 mph 39 % 0.00 in
10:58 57.8 °F 32.3 °F 30.13 in WSW 3.2 mph 7.0 mph 38 % 0.00 in
11:03 58.3 °F 32.1 °F 30.13 in WSW 4.2 mph 9.2 mph 37 % 0.00 in
11:08 58.7 °F 32.5 °F 30.13 in SW 3.6 mph 7.0 mph 37 % 0.00 in
11:13 59.3 °F 32.3 °F 30.13 in WNW 3.9 mph 5.8 mph 36 % 0.00 in
11:23 60.2 °F 31.0 °F 30.13 in West 2.3 mph 3.5 mph 33 % 0.00 in
11:28 60.5 °F 30.5 °F 30.13 in WNW 4.2 mph 6.0 mph 32 % 0.00 in
11:34 60.3 °F 29.5 °F 30.13 in WNW 4.3 mph 8.1 mph 31 % 0.00 in
11:39 60.3 °F 30.3 °F 30.13 in WSW 3.8 mph 5.8 mph 32 % 0.00 in
11:44 60.7 °F 29.1 °F 30.13 in West 2.9 mph 6.9 mph 30 % 0.00 in
11:49 61.1 °F 31.0 °F 30.13 in West 4.5 mph 6.0 mph 32 % 0.00 in
11:59 62.0 °F 30.2 °F 30.13 in SW 2.3 mph 3.0 mph 30 % 0.00 in
12:04 62.5 °F 33.0 °F 30.12 in NW 2.2 mph 7.0 mph 33 % 0.00 in
12:09 62.5 °F 28.0 °F 30.12 in WNW 3.7 mph 4.6 mph 27 % 0.00 in
12:14 62.6 °F 28.1 °F 30.12 in NW 3.0 mph 5.0 mph 27 % 0.00 in
12:19 62.9 °F 27.5 °F 30.12 in West 2.7 mph 4.6 mph 26 % 0.00 in
12:24 63.1 °F 28.5 °F 30.12 in WNW 2.7 mph 6.0 mph 27 % 0.00 in
12:34 63.4 °F 29.7 °F 30.11 in WNW 3.5 mph 6.0 mph 28 % 0.00 in
12:39 63.7 °F 27.2 °F 30.12 in WSW 1.5 mph 6.9 mph 25 % 0.00 in
12:44 64.3 °F 26.7 °F 30.12 in West 5.8 mph 8.1 mph 24 % 0.00 in
12:49 64.7 °F 28.0 °F 30.12 in West 3.7 mph 6.9 mph 25 % 0.00 in
12:54 65.1 °F 29.3 °F 30.12 in NW 3.1 mph 9.0 mph 26 % 0.00 in
12:59 65.3 °F 26.5 °F 30.12 in West 6.3 mph 9.2 mph 23 % 0.00 in
13:05 65.2 °F 25.4 °F 30.12 in WSW 6.1 mph 9.2 mph 22 % 0.00 in
13:10 64.9 °F 28.2 °F 30.12 in SW 2.9 mph 6.0 mph 25 % 0.00 in
13:13 65.1 °F 27.4 °F 30.12 in West 4.3 mph 5.8 mph 24 % 0.00 in
13:18 65.4 °F 25.5 °F 30.12 in West 6.5 mph 10.4 mph 22 % 0.00 in
13:23 65.3 °F 26.5 °F 30.12 in NW 2.6 mph 5.8 mph 23 % 0.00 in
13:28 65.4 °F 25.5 °F 30.12 in West 3.1 mph 10.4 mph 22 % 0.00 in
13:33 65.5 °F 26.7 °F 30.12 in WSW 4.6 mph 9.2 mph 23 % 0.00 in
13:38 65.7 °F 29.8 °F 30.11 in WNW 4.7 mph 6.9 mph 26 % 0.00 in
13:43 65.8 °F 29.9 °F 30.11 in NW 3.9 mph 10.4 mph 26 % 0.00 in
13:48 66.0 °F 29.1 °F 30.12 in SW 6.7 mph 9.2 mph 25 % 0.00 in
13:53 66.1 °F 28.2 °F 30.12 in West 3.7 mph 8.1 mph 24 % 0.00 in
13:58 66.1 °F 29.2 °F 30.12 in West 6.8 mph 11.5 mph 25 % 0.00 in
14:03 66.1 °F 31.1 °F 30.11 in West 3.5 mph 9.2 mph 27 % 0.00 in
14:08 66.3 °F 29.4 °F 30.11 in WSW 4.7 mph 8.0 mph 25 % 0.00 in
14:13 66.5 °F 31.5 °F 30.11 in West 4.5 mph 8.1 mph 27 % 0.00 in
14:19 66.5 °F 30.5 °F 30.11 in West 4.9 mph 8.1 mph 26 % 0.00 in
14:24 66.7 °F 31.6 °F 30.10 in WSW 4.3 mph 6.9 mph 27 % 0.00 in
14:29 66.5 °F 31.5 °F 30.10 in WSW 7.1 mph 12.7 mph 27 % 0.00 in
14:34 66.4 °F 32.3 °F 30.10 in SW 6.7 mph 9.2 mph 28 % 0.00 in
14:39 66.6 °F 31.5 °F 30.10 in SW 3.5 mph 9.0 mph 27 % 0.00 in
14:44 66.7 °F 30.7 °F 30.10 in West 4.1 mph 9.2 mph 26 % 0.00 in
14:54 67.2 °F 31.1 °F 30.09 in WSW 5.3 mph 8.0 mph 26 % 0.00 in
14:59 67.2 °F 31.1 °F 30.09 in SW 4.7 mph 9.2 mph 26 % 0.00 in
15:05 66.8 °F 30.8 °F 30.09 in West 3.1 mph 8.1 mph 26 % 0.00 in
15:10 66.9 °F 31.8 °F 30.09 in WSW 7.5 mph 10.4 mph 27 % 0.00 in
15:15 67.0 °F 33.7 °F 30.09 in WNW 2.2 mph 5.0 mph 29 % 0.00 in
15:20 67.3 °F 31.2 °F 30.09 in WSW 6.2 mph 10.4 mph 26 % 0.00 in
15:25 67.3 °F 33.9 °F 30.09 in WSW 6.1 mph 9.0 mph 29 % 0.00 in
15:30 67.4 °F 33.1 °F 30.09 in West 2.7 mph 6.0 mph 28 % 0.00 in
15:35 67.5 °F 32.3 °F 30.09 in West 4.2 mph 7.0 mph 27 % 0.00 in
15:40 67.6 °F 32.4 °F 30.09 in NW 1.4 mph 3.5 mph 27 % 0.00 in
15:45 67.7 °F 32.5 °F 30.09 in West 5.5 mph 9.2 mph 27 % 0.00 in
15:50 67.7 °F 32.5 °F 30.09 in WNW 3.7 mph 5.0 mph 27 % 0.00 in
15:55 67.8 °F 33.5 °F 30.09 in WSW 3.3 mph 4.6 mph 28 % 0.00 in
16:00 68.0 °F 33.7 °F 30.09 in West 2.6 mph 5.8 mph 28 % 0.00 in
16:05 68.0 °F 34.5 °F 30.09 in SW 0.8 mph 5.8 mph 29 % 0.00 in
16:10 68.1 °F 35.5 °F 30.09 in SSW 8.7 mph 10.0 mph 30 % 0.00 in
16:11 68.0 °F 35.4 °F 30.09 in SSW 5.9 mph 17.3 mph 30 % 0.00 in
16:16 67.8 °F 35.2 °F 30.09 in SSW 6.4 mph 10.4 mph 30 % 0.00 in
16:21 67.6 °F 35.0 °F 30.08 in SW 5.6 mph 12.0 mph 30 % 0.00 in
16:26 67.2 °F 34.7 °F 30.09 in SW 7.0 mph 12.0 mph 30 % 0.00 in
16:31 66.7 °F 35.1 °F 30.09 in SSW 5.5 mph 11.5 mph 31 % 0.00 in
16:36 66.2 °F 34.7 °F 30.08 in South 5.5 mph 8.1 mph 31 % 0.00 in
16:41 65.9 °F 34.4 °F 30.08 in SSW 8.1 mph 15.0 mph 31 % 0.00 in
16:46 65.6 °F 34.1 °F 30.08 in WSW 7.0 mph 10.4 mph 31 % 0.00 in
16:51 65.1 °F 33.7 °F 30.08 in SSW 5.0 mph 8.1 mph 31 % 0.00 in
16:56 64.8 °F 34.2 °F 30.08 in South 4.9 mph 8.1 mph 32 % 0.00 in
17:01 64.4 °F 33.9 °F 30.08 in South 6.1 mph 11.5 mph 32 % 0.00 in
17:06 63.9 °F 34.2 °F 30.09 in South 8.0 mph 12.7 mph 33 % 0.00 in
17:11 63.2 °F 33.6 °F 30.08 in SSW 6.6 mph 11.5 mph 33 % 0.00 in
17:16 62.6 °F 33.1 °F 30.09 in South 7.0 mph 8.1 mph 33 % 0.00 in
17:21 62.1 °F 33.4 °F 30.09 in SSW 8.2 mph 12.7 mph 34 % 0.00 in
17:26 61.4 °F 32.8 °F 30.09 in SSW 5.9 mph 9.0 mph 34 % 0.00 in
17:31 61.1 °F 32.5 °F 30.09 in SSE 7.3 mph 12.0 mph 34 % 0.00 in
17:36 60.6 °F 31.3 °F 30.09 in South 3.5 mph 9.2 mph 33 % 0.00 in
17:41 60.3 °F 32.5 °F 30.09 in SSE 5.9 mph 11.5 mph 35 % 0.00 in
17:46 60.0 °F 31.5 °F 30.09 in South 4.1 mph 12.7 mph 34 % 0.00 in
17:51 59.7 °F 32.0 °F 30.09 in SSW 6.9 mph 10.4 mph 35 % 0.00 in
18:01 59.0 °F 32.1 °F 30.09 in SSW 4.7 mph 11.5 mph 36 % 0.00 in
18:06 58.8 °F 31.9 °F 30.09 in SSE 8.2 mph 11.5 mph 36 % 0.00 in
18:11 58.6 °F 31.7 °F 30.09 in SE 4.3 mph 11.5 mph 36 % 0.00 in
18:16 58.4 °F 32.2 °F 30.09 in SSW 7.6 mph 11.5 mph 37 % 0.00 in
18:21 58.0 °F 31.2 °F 30.09 in South 7.2 mph 11.5 mph 36 % 0.00 in
18:26 57.8 °F 31.7 °F 30.09 in SSE 6.3 mph 10.4 mph 37 % 0.00 in
18:31 57.5 °F 31.4 °F 30.09 in South 7.0 mph 10.4 mph 37 % 0.00 in
18:36 57.2 °F 31.8 °F 30.09 in South 8.2 mph 18.4 mph 38 % 0.00 in
18:41 56.8 °F 31.4 °F 30.09 in SSW 5.1 mph 11.5 mph 38 % 0.00 in
18:46 56.4 °F 31.7 °F 30.08 in South 7.6 mph 15.0 mph 39 % 0.00 in
18:51 56.0 °F 32.0 °F 30.08 in South 5.7 mph 12.7 mph 40 % 0.00 in
18:56 55.6 °F 31.6 °F 30.08 in SSW 4.5 mph 13.8 mph 40 % 0.00 in
19:02 55.3 °F 32.0 °F 30.09 in South 5.5 mph 9.2 mph 41 % 0.00 in
19:07 54.9 °F 31.6 °F 30.08 in SE 7.2 mph 11.5 mph 41 % 0.00 in
19:12 54.4 °F 31.2 °F 30.08 in SSW 6.6 mph 11.5 mph 41 % 0.00 in
19:17 53.9 °F 31.3 °F 30.08 in South 7.1 mph 12.7 mph 42 % 0.00 in
19:22 53.4 °F 30.9 °F 30.08 in SSW 6.9 mph 12.7 mph 42 % 0.00 in
19:32 52.6 °F 31.3 °F 30.09 in SSW 6.1 mph 10.4 mph 44 % 0.00 in
19:37 52.4 °F 31.1 °F 30.09 in South 5.6 mph 11.5 mph 44 % 0.00 in
19:42 52.0 °F 31.3 °F 30.09 in South 7.7 mph 11.5 mph 45 % 0.00 in
19:47 51.8 °F 31.1 °F 30.09 in South 5.8 mph 8.1 mph 45 % 0.00 in
19:52 51.5 °F 31.9 °F 30.09 in SSW 6.2 mph 11.5 mph 47 % 0.00 in
19:57 51.3 °F 31.7 °F 30.09 in South 7.4 mph 15.0 mph 47 % 0.00 in
20:02 51.1 °F 32.1 °F 30.09 in SSW 6.1 mph 9.2 mph 48 % 0.00 in
20:07 51.0 °F 32.0 °F 30.10 in South 6.0 mph 12.0 mph 48 % 0.00 in
20:12 50.9 °F 32.4 °F 30.10 in South 7.0 mph 12.0 mph 49 % 0.00 in
20:17 50.8 °F 32.8 °F 30.10 in South 7.0 mph 10.0 mph 50 % 0.00 in
20:22 50.6 °F 33.1 °F 30.10 in SSW 7.6 mph 10.4 mph 51 % 0.00 in
20:27 50.5 °F 33.5 °F 30.10 in South 5.4 mph 6.9 mph 52 % 0.00 in
20:32 50.5 °F 34.0 °F 30.11 in South 8.0 mph 13.0 mph 53 % 0.00 in
20:37 50.4 °F 33.9 °F 30.11 in South 7.0 mph 12.0 mph 53 % 0.00 in
20:42 50.3 °F 33.8 °F 30.11 in South 5.0 mph 12.0 mph 53 % 0.00 in
20:47 50.3 °F 34.3 °F 30.12 in SSW 7.0 mph 14.0 mph 54 % 0.00 in
20:52 50.2 °F 34.7 °F 30.12 in South 7.0 mph 12.0 mph 55 % 0.00 in
20:57 50.2 °F 34.6 °F 30.12 in South 5.8 mph 9.2 mph 55 % 0.00 in
21:02 50.2 °F 35.1 °F 30.12 in SSW 6.6 mph 10.4 mph 56 % 0.00 in
21:07 50.1 °F 35.0 °F 30.12 in SSW 5.8 mph 12.7 mph 56 % 0.00 in
21:12 50.1 °F 35.0 °F 30.12 in South 3.8 mph 8.1 mph 56 % 0.00 in
21:17 50.1 °F 35.4 °F 30.12 in SSW 4.9 mph 10.4 mph 57 % 0.00 in
21:22 50.1 °F 35.4 °F 30.12 in South 5.0 mph 12.0 mph 57 % 0.00 in
21:27 50.0 °F 35.8 °F 30.12 in South 5.0 mph 8.0 mph 58 % 0.00 in
21:32 50.0 °F 35.8 °F 30.13 in South 2.0 mph 7.0 mph 58 % 0.00 in
21:37 49.9 °F 36.1 °F 30.13 in SSW 2.0 mph 7.0 mph 59 % 0.00 in
21:42 49.9 °F 35.7 °F 30.13 in SW 3.0 mph 6.0 mph 58 % 0.00 in
21:47 49.9 °F 36.1 °F 30.13 in WSW 3.0 mph 7.0 mph 59 % 0.00 in
21:52 49.9 °F 35.7 °F 30.14 in Calm   3.0 mph 58 % 0.00 in
22:02 49.9 °F 36.1 °F 30.14 in Calm   1.2 mph 59 % 0.00 in
22:07 49.8 °F 36.0 °F 30.14 in WSW 0.3 mph 1.2 mph 59 % 0.00 in
22:17 49.7 °F 35.9 °F 30.14 in WSW 1.6 mph 2.0 mph 59 % 0.00 in
22:22 49.6 °F 36.3 °F 30.14 in SSW 0.5 mph 1.2 mph 60 % 0.00 in
22:27 49.5 °F 36.2 °F 30.14 in SSW 2.3 mph 4.0 mph 60 % 0.00 in
22:32 49.4 °F 36.5 °F 30.14 in SSW 0.8 mph 3.5 mph 61 % 0.00 in
22:37 49.3 °F 36.4 °F 30.14 in SW 1.1 mph 3.5 mph 61 % 0.00 in
22:42 49.2 °F 36.7 °F 30.14 in WSW 1.3 mph 8.0 mph 62 % 0.00 in
22:47 49.2 °F 36.7 °F 30.14 in WSW 1.7 mph 4.0 mph 62 % 0.00 in
22:52 49.3 °F 36.8 °F 30.14 in WSW 0.8 mph 3.5 mph 62 % 0.00 in
22:57 49.3 °F 36.8 °F 30.14 in WSW 0.9 mph 3.5 mph 62 % 0.00 in
23:02 49.4 °F 36.9 °F 30.14 in SW 2.4 mph 5.0 mph 62 % 0.00 in
23:07 49.5 °F 37.0 °F 30.14 in WSW 1.7 mph 3.5 mph 62 % 0.00 in
23:13 49.5 °F 36.6 °F 30.14 in West 2.3 mph 3.5 mph 61 % 0.00 in
23:18 49.5 °F 37.0 °F 30.14 in WSW 0.5 mph 2.3 mph 62 % 0.00 in
23:23 49.5 °F 37.0 °F 30.14 in WSW 2.7 mph 3.5 mph 62 % 0.00 in
23:28 49.5 °F 36.6 °F 30.14 in SW 2.5 mph 5.8 mph 61 % 0.00 in
23:33 49.6 °F 36.7 °F 30.14 in SW 2.6 mph 4.0 mph 61 % 0.00 in
23:38 49.6 °F 36.3 °F 30.13 in WSW 5.1 mph 8.1 mph 60 % 0.00 in
23:43 49.8 °F 36.0 °F 30.14 in SSW 3.8 mph 9.2 mph 59 % 0.00 in
23:48 50.0 °F 35.8 °F 30.13 in WSW 4.7 mph 7.0 mph 58 % 0.00 in
23:53 50.1 °F 35.9 °F 30.13 in SW 5.6 mph 11.5 mph 58 % 0.00 in
23:58 50.3 °F 35.6 °F 30.14 in SW 4.5 mph 7.0 mph 57 % 0.00 in
Crab Meadow Weather
Compliments of Weather Underground - 2.75 mb

Script developed by  Jim McMurry - jmcmurry@mwt.net Adapted for the template by  Wim van der Kuil - Leuven-Template.eu

Weather Terms: Relative Humidity - The ratio of the amount of water vapor actually present in the air to the greatest amount possible at the same temperature.